Time;durP1;ratioP1;P1;durP2;ratioP2;P2;SDS_P1;SDS_P2;PMS_P1;PMS_P2;Temp;Humidity;BMP_temperature;BMP_pressure;BME280_temperature;BME280_humidity;BME280_pressure;Samples;Min_cycle;Max_cycle;Signal;HPM_P1;HPM_P2
2022/09/10 00:01:58;;;;;;;3.80;1.70;;;16.50;99.90;;;;;;5074175;28;21000;-80
2022/09/10 00:04:25;;;;;;;2.83;1.63;;;16.50;99.90;;;;;;5073863;28;20493;-79
2022/09/10 00:06:52;;;;;;;3.83;2.00;;;16.60;99.90;;;;;;5074611;28;20455;-82
2022/09/10 00:09:19;;;;;;;3.63;1.70;;;16.60;99.90;;;;;;5075442;28;20462;-78
2022/09/10 00:11:45;;;;;;;4.30;2.10;;;16.60;99.90;;;;;;5073355;28;20481;-79
2022/09/10 00:14:15;;;;;;;5.90;1.63;;;16.60;99.90;;;;;;5075842;28;20543;-80
2022/09/10 00:16:44;;;;;;;6.30;2.20;;;16.60;99.90;;;;;;5079063;28;20490;-81
2022/09/10 00:19:11;;;;;;;4.63;1.83;;;16.60;99.90;;;;;;5078995;28;20839;-80
2022/09/10 00:21:38;;;;;;;3.13;1.50;;;16.70;99.90;;;;;;5078025;28;20481;-78
2022/09/10 00:24:05;;;;;;;5.07;1.40;;;16.50;99.90;;;;;;5075385;28;20453;-80
2022/09/10 00:26:37;;;;;;;3.47;1.53;;;16.70;99.90;;;;;;5076703;28;20453;-79
2022/09/10 00:29:04;;;;;;;3.07;1.33;;;16.70;99.90;;;;;;5077773;28;20457;-79
2022/09/10 00:31:32;;;;;;;7.20;1.70;;;16.80;99.90;;;;;;5076476;28;20590;-80
2022/09/10 00:34:02;;;;;;;2.90;1.33;;;16.70;99.90;;;;;;5075492;28;20451;-80
2022/09/10 00:36:31;;;;;;;2.60;1.30;;;16.60;99.90;;;;;;5076895;28;20555;-78
2022/09/10 00:38:59;;;;;;;3.23;1.40;;;16.70;99.90;;;;;;5076994;28;20827;-79
2022/09/10 00:41:29;;;;;;;4.00;1.60;;;16.70;99.90;;;;;;5076226;28;20450;-79
2022/09/10 00:43:58;;;;;;;3.33;1.10;;;16.80;99.90;;;;;;5076116;28;20974;-81
2022/09/10 00:46:33;;;;;;;1.93;1.30;;;16.80;99.90;;;;;;5076807;28;20452;-80
2022/09/10 00:49:06;;;;;;;2.53;1.40;;;16.80;99.90;;;;;;5076980;28;20462;-80
2022/09/10 00:51:35;;;;;;;5.73;1.90;;;16.80;99.90;;;;;;5075877;28;20451;-79
2022/09/10 00:54:03;;;;;;;5.00;1.77;;;16.80;99.90;;;;;;5076205;28;20808;-80
2022/09/10 00:56:31;;;;;;;3.83;1.60;;;16.90;99.90;;;;;;5101790;22;20491;-82
2022/09/10 00:58:59;;;;;;;3.80;1.53;;;16.90;99.90;;;;;;5062367;28;20494;-82
2022/09/10 01:01:25;;;;;;;2.83;1.50;;;16.80;99.90;;;;;;5053572;28;20452;-82
2022/09/10 01:03:54;;;;;;;2.60;1.40;;;16.80;99.90;;;;;;5045772;28;20458;-82
2022/09/10 01:06:23;;;;;;;3.23;1.50;;;16.80;99.90;;;;;;5044490;28;21001;-82
2022/09/10 01:08:49;;;;;;;3.60;1.30;;;16.80;99.90;;;;;;5044881;28;20881;-82
2022/09/10 01:11:36;;;;;;;2.07;1.00;;;16.90;99.90;;;;;;5046309;28;20459;-82
2022/09/10 01:14:25;;;;;;;3.60;1.60;;;16.90;99.90;;;;;;5053239;28;20451;-82
2022/09/10 01:17:03;;;;;;;5.67;1.77;;;16.90;99.90;;;;;;5036628;28;20515;-82
2022/09/10 01:19:55;;;;;;;3.63;1.50;;;16.90;99.90;;;;;;5044640;28;20457;-82
2022/09/10 01:22:35;;;;;;;4.53;1.30;;;16.70;99.90;;;;;;5042492;28;20541;-82
2022/09/10 01:25:15;;;;;;;5.13;1.70;;;16.70;99.90;;;;;;5042890;28;20454;-83
2022/09/10 01:27:45;;;;;;;3.30;1.60;;;16.80;99.90;;;;;;5044579;28;20899;-83
2022/09/10 01:30:18;;;;;;;3.20;1.30;;;16.70;99.90;;;;;;5029816;28;20973;-83
2022/09/10 01:33:11;;;;;;;5.70;1.30;;;16.60;99.90;;;;;;5040252;28;20456;-82
2022/09/10 01:35:43;;;;;;;2.93;1.30;;;16.70;99.90;;;;;;5040642;28;20542;-82
2022/09/10 01:38:15;;;;;;;2.70;1.10;;;16.60;99.90;;;;;;5044303;28;20496;-82
2022/09/10 01:40:43;;;;;;;4.03;1.80;;;16.60;99.90;;;;;;5043963;28;20898;-83
2022/09/10 01:43:12;;;;;;;3.20;1.70;;;16.60;99.90;;;;;;5024354;28;20459;-82
2022/09/10 01:45:49;;;;;;;5.77;1.43;;;16.60;99.90;;;;;;5038798;28;20495;-81
2022/09/10 01:48:34;;;;;;;3.17;1.10;;;16.60;99.90;;;;;;5041456;28;20539;-82
2022/09/10 01:51:10;;;;;;;3.10;1.20;;;16.60;99.90;;;;;;5041258;28;20457;-82
2022/09/10 01:53:49;;;;;;;4.63;1.50;;;16.60;99.90;;;;;;5040314;28;20963;-82
2022/09/10 01:56:26;;;;;;;2.03;1.03;;;16.60;99.90;;;;;;5041009;28;20475;-81
2022/09/10 01:59:02;;;;;;;3.23;1.30;;;16.60;99.90;;;;;;5041461;28;20446;-82
2022/09/10 02:01:34;;;;;;;4.80;1.40;;;16.60;99.90;;;;;;5031523;28;20967;-82
2022/09/10 02:04:05;;;;;;;5.60;1.50;;;16.70;99.90;;;;;;5040595;28;20444;-82
2022/09/10 02:06:36;;;;;;;2.10;1.13;;;16.70;99.90;;;;;;5024491;28;20501;-81
2022/09/10 02:09:04;;;;;;;3.27;1.10;;;16.80;99.90;;;;;;5034885;28;20528;-82
2022/09/10 02:11:42;;;;;;;1.97;1.13;;;16.80;99.90;;;;;;5040139;28;20453;-81
2022/09/10 02:14:13;;;;;;;3.60;1.37;;;16.80;99.90;;;;;;5040493;28;20960;-82
2022/09/10 02:16:42;;;;;;;4.17;1.20;;;16.80;99.90;;;;;;5040051;28;20499;-81
2022/09/10 02:19:10;;;;;;;3.30;1.20;;;16.80;99.90;;;;;;5038774;28;20449;-81
2022/09/10 02:21:38;;;;;;;2.63;1.03;;;16.80;99.90;;;;;;5040012;28;20468;-81
2022/09/10 02:24:07;;;;;;;4.43;1.30;;;16.80;99.90;;;;;;5039369;28;20452;-82
2022/09/10 02:26:35;;;;;;;4.73;1.53;;;16.80;99.90;;;;;;5039894;28;20566;-82
2022/09/10 02:29:02;;;;;;;2.97;1.30;;;16.80;99.90;;;;;;5039950;28;20475;-81
2022/09/10 02:31:31;;;;;;;4.47;1.50;;;16.80;99.90;;;;;;5039435;28;20515;-82
2022/09/10 02:33:57;;;;;;;3.13;1.87;;;16.80;99.90;;;;;;5039100;28;20544;-80
2022/09/10 02:36:25;;;;;;;3.87;1.77;;;16.80;99.90;;;;;;5041436;28;20478;-81
2022/09/10 02:38:51;;;;;;;3.17;1.70;;;16.70;99.90;;;;;;5042725;28;20456;-80
2022/09/10 02:41:21;;;;;;;5.23;1.70;;;16.70;99.90;;;;;;5042001;28;20521;-80
2022/09/10 02:43:48;;;;;;;4.97;2.03;;;16.80;99.90;;;;;;5041015;28;20466;-80
2022/09/10 02:46:15;;;;;;;2.83;1.67;;;16.70;99.90;;;;;;5042922;28;20481;-80
2022/09/10 02:48:43;;;;;;;3.30;1.60;;;16.70;99.90;;;;;;5042587;28;20462;-80
2022/09/10 02:51:11;;;;;;;3.20;1.67;;;16.80;99.90;;;;;;5042067;28;20451;-80
2022/09/10 02:53:37;;;;;;;2.73;1.67;;;16.80;99.90;;;;;;5043447;28;20455;-80
2022/09/10 02:56:06;;;;;;;3.97;1.80;;;16.70;99.90;;;;;;5043716;28;20578;-80
2022/09/10 02:58:33;;;;;;;4.77;1.97;;;16.80;99.90;;;;;;5042024;28;20829;-80
2022/09/10 03:01:07;;;;;;;2.70;1.60;;;16.80;99.90;;;;;;5042821;28;21023;-81
2022/09/10 03:03:34;;;;;;;2.63;1.60;;;16.60;99.90;;;;;;5040786;28;20528;-80
2022/09/10 03:06:02;;;;;;;2.50;1.50;;;16.70;99.90;;;;;;5043514;28;20563;-81
2022/09/10 03:08:30;;;;;;;2.57;1.20;;;16.50;99.90;;;;;;5041980;28;20510;-80
2022/09/10 03:10:58;;;;;;;2.50;1.60;;;16.60;99.90;;;;;;5042084;28;20452;-80
2022/09/10 03:13:26;;;;;;;2.33;1.53;;;16.70;99.90;;;;;;5042413;28;20548;-81
2022/09/10 03:15:53;;;;;;;4.30;1.57;;;16.70;99.90;;;;;;5042528;28;20480;-80
2022/09/10 03:18:22;;;;;;;2.80;1.80;;;16.70;99.90;;;;;;5040164;28;20491;-81
2022/09/10 03:20:49;;;;;;;5.90;1.80;;;16.80;99.90;;;;;;5041485;28;20452;-81
2022/09/10 03:23:17;;;;;;;2.70;1.30;;;16.70;99.90;;;;;;5040943;28;20456;-81
2022/09/10 03:25:45;;;;;;;5.93;1.70;;;16.70;99.90;;;;;;5041572;28;20929;-80
2022/09/10 03:28:12;;;;;;;5.10;1.80;;;16.60;99.90;;;;;;5041539;28;20977;-81
2022/09/10 03:30:41;;;;;;;5.57;1.40;;;16.70;99.90;;;;;;5034174;28;20459;-80
2022/09/10 03:33:07;;;;;;;2.43;1.40;;;16.70;99.90;;;;;;5032640;28;20468;-81
2022/09/10 03:35:34;;;;;;;2.90;1.50;;;16.70;99.90;;;;;;5033978;28;20479;-80
2022/09/10 03:38:01;;;;;;;5.00;2.10;;;16.70;99.90;;;;;;5033816;28;20484;-80
2022/09/10 03:40:29;;;;;;;3.67;2.13;;;16.70;99.90;;;;;;5034867;28;20452;-80
2022/09/10 03:42:56;;;;;;;4.63;2.50;;;16.60;99.90;;;;;;5034060;28;21050;-81
2022/09/10 03:45:23;;;;;;;4.97;2.30;;;16.50;99.90;;;;;;5035379;28;20454;-81
2022/09/10 03:47:50;;;;;;;4.40;2.27;;;16.60;99.90;;;;;;5038198;28;20839;-80
2022/09/10 03:50:18;;;;;;;5.30;3.83;;;16.70;99.90;;;;;;5039678;28;20460;-79
2022/09/10 03:52:45;;;;;;;3.10;2.00;;;16.70;99.90;;;;;;5040340;28;20550;-80
2022/09/10 03:55:12;;;;;;;7.20;4.00;;;16.70;99.90;;;;;;5040644;28;20545;-79
2022/09/10 03:57:41;;;;;;;6.20;2.83;;;16.50;99.90;;;;;;5041266;28;21077;-79
2022/09/10 04:00:10;;;;;;;8.03;3.60;;;16.50;99.90;;;;;;5039564;28;20460;-78
2022/09/10 04:02:37;;;;;;;5.87;3.70;;;16.40;99.90;;;;;;5039498;28;20488;-79
2022/09/10 04:05:05;;;;;;;9.37;4.53;;;16.50;99.90;;;;;;5039325;28;20464;-79
2022/09/10 04:07:32;;;;;;;5.33;3.40;;;16.20;99.90;;;;;;5039018;28;20460;-77
2022/09/10 04:09:59;;;;;;;6.40;3.47;;;16.30;99.90;;;;;;5037469;28;20448;-78
2022/09/10 04:12:32;;;;;;;3.60;3.20;;;16.30;99.90;;;;;;5038700;28;20463;-78
2022/09/10 04:15:03;;;;;;;8.53;3.87;;;16.30;99.90;;;;;;5043261;28;20499;-81
2022/09/10 04:17:30;;;;;;;4.73;3.33;;;16.30;99.90;;;;;;5045138;28;20498;-82
2022/09/10 04:19:57;;;;;;;5.60;3.80;;;16.20;99.90;;;;;;5044743;28;20494;-81
2022/09/10 04:22:23;;;;;;;7.07;4.10;;;16.20;99.90;;;;;;5044244;28;20479;-81
2022/09/10 04:24:50;;;;;;;6.03;3.90;;;16.20;99.90;;;;;;5039572;28;20451;-79
2022/09/10 04:27:17;;;;;;;6.80;4.27;;;16.30;99.90;;;;;;5038541;28;20478;-79
2022/09/10 04:29:44;;;;;;;4.53;4.10;;;16.20;99.90;;;;;;5037539;28;20457;-78
2022/09/10 04:32:12;;;;;;;5.80;4.00;;;16.30;99.90;;;;;;5039584;28;20491;-79
2022/09/10 04:34:39;;;;;;;7.00;5.17;;;16.30;99.90;;;;;;5038117;28;20468;-79
2022/09/10 04:37:05;;;;;;;6.83;4.70;;;16.20;99.90;;;;;;5039393;28;20481;-79
2022/09/10 04:39:32;;;;;;;6.47;4.30;;;16.20;99.90;;;;;;5039328;28;20865;-79
2022/09/10 04:42:00;;;;;;;6.70;4.27;;;16.20;99.90;;;;;;5041081;28;20464;-81
2022/09/10 04:44:28;;;;;;;10.70;4.70;;;16.20;99.90;;;;;;5044880;28;20458;-80
2022/09/10 04:46:55;;;;;;;6.30;5.07;;;16.20;99.90;;;;;;5045975;28;20481;-81
2022/09/10 04:49:23;;;;;;;7.20;4.93;;;16.20;99.90;;;;;;5043988;28;20534;-81
2022/09/10 04:51:50;;;;;;;5.87;5.00;;;16.00;99.90;;;;;;5046147;28;20449;-80
2022/09/10 04:54:18;;;;;;;6.50;4.90;;;16.00;99.90;;;;;;5045435;28;20456;-80
2022/09/10 04:56:46;;;;;;;7.83;5.40;;;16.10;99.90;;;;;;5043531;28;20565;-81
2022/09/10 04:59:13;;;;;;;8.90;5.30;;;16.10;99.90;;;;;;5042539;28;20557;-80
2022/09/10 05:01:40;;;;;;;5.43;4.93;;;16.10;99.90;;;;;;5044026;28;20539;-80
2022/09/10 05:04:07;;;;;;;8.47;6.30;;;16.10;99.90;;;;;;5044326;28;20768;-81
2022/09/10 05:06:35;;;;;;;7.37;5.60;;;16.00;99.90;;;;;;5046196;28;20471;-81
2022/09/10 05:09:02;;;;;;;10.60;7.50;;;16.10;99.90;;;;;;5045699;28;20449;-82
2022/09/10 05:11:30;;;;;;;10.57;6.77;;;16.00;99.90;;;;;;5044706;28;20838;-81
2022/09/10 05:13:57;;;;;;;6.33;5.73;;;16.00;99.90;;;;;;5044589;28;20473;-81
2022/09/10 05:16:24;;;;;;;6.83;5.57;;;16.10;99.90;;;;;;5042620;28;20563;-81
2022/09/10 05:18:51;;;;;;;7.30;5.60;;;16.10;99.90;;;;;;5043263;28;20491;-81
2022/09/10 05:21:19;;;;;;;8.10;7.00;;;16.20;99.90;;;;;;5041531;28;20524;-80
2022/09/10 05:23:47;;;;;;;8.80;6.13;;;16.20;99.90;;;;;;5041320;28;20456;-80
2022/09/10 05:26:14;;;;;;;7.03;6.33;;;16.20;99.90;;;;;;5043093;28;20503;-80
2022/09/10 05:28:41;;;;;;;9.43;6.53;;;16.20;99.90;;;;;;5043741;28;20527;-81
2022/09/10 05:31:08;;;;;;;10.30;6.93;;;16.30;99.90;;;;;;5046313;28;20451;-82
2022/09/10 05:33:38;;;;;;;9.00;5.83;;;16.20;99.90;;;;;;5044907;28;20452;-81
2022/09/10 05:36:06;;;;;;;8.23;6.37;;;16.30;99.90;;;;;;5044631;28;20478;-81
2022/09/10 05:38:33;;;;;;;6.67;5.97;;;16.20;99.90;;;;;;5042120;28;20626;-79
2022/09/10 05:41:01;;;;;;;9.97;6.83;;;16.20;99.90;;;;;;5038625;28;20487;-79
2022/09/10 05:43:28;;;;;;;6.00;5.10;;;16.20;99.90;;;;;;5038004;28;20453;-79
2022/09/10 05:45:55;;;;;;;8.93;7.43;;;16.20;99.90;;;;;;5037096;28;20497;-80
2022/09/10 05:48:22;;;;;;;12.20;6.80;;;16.20;99.90;;;;;;5036123;28;20456;-78
2022/09/10 05:50:49;;;;;;;11.37;7.70;;;16.20;99.90;;;;;;5035883;28;20981;-78
2022/09/10 05:53:16;;;;;;;7.80;6.70;;;16.10;99.90;;;;;;5033759;28;20494;-79
2022/09/10 05:55:44;;;;;;;7.67;6.97;;;16.00;99.90;;;;;;5034684;28;20584;-78
2022/09/10 05:58:13;;;;;;;8.77;7.77;;;16.00;99.90;;;;;;5034684;28;20643;-78
2022/09/10 06:00:42;;;;;;;15.57;8.07;;;16.00;99.90;;;;;;5034362;28;20486;-78
2022/09/10 06:03:09;;;;;;;12.27;6.27;;;15.90;99.90;;;;;;5034046;28;20457;-79
2022/09/10 06:05:36;;;;;;;7.70;6.63;;;15.90;99.90;;;;;;5034456;28;20480;-78
2022/09/10 06:08:03;;;;;;;7.53;6.83;;;16.00;99.90;;;;;;5034078;28;20466;-79
2022/09/10 06:10:31;;;;;;;8.07;6.40;;;16.00;99.90;;;;;;5033705;28;20537;-79
2022/09/10 06:12:58;;;;;;;10.70;8.80;;;16.00;99.90;;;;;;5033183;28;20769;-79
2022/09/10 06:15:26;;;;;;;8.67;6.40;;;15.90;99.90;;;;;;5035018;28;20454;-78
2022/09/10 06:17:54;;;;;;;11.27;6.80;;;15.90;99.90;;;;;;5035606;28;20480;-78
2022/09/10 06:20:22;;;;;;;8.10;6.67;;;15.90;99.90;;;;;;5029249;28;20458;-79
2022/09/10 06:22:49;;;;;;;6.70;5.67;;;15.80;99.90;;;;;;5033041;28;20532;-78
2022/09/10 06:25:16;;;;;;;8.93;6.77;;;15.90;99.90;;;;;;5035458;28;20453;-79
2022/09/10 06:27:43;;;;;;;8.53;6.93;;;15.90;99.90;;;;;;5035219;28;20494;-79
2022/09/10 06:30:10;;;;;;;12.23;7.33;;;15.90;99.90;;;;;;5030847;28;20457;-78
2022/09/10 06:32:39;;;;;;;8.67;7.57;;;16.00;99.90;;;;;;5031960;28;20973;-82
2022/09/10 06:35:06;;;;;;;8.70;6.77;;;16.00;99.90;;;;;;5034257;28;20437;-79
2022/09/10 06:37:33;;;;;;;13.30;9.73;;;16.10;99.90;;;;;;5034430;28;21254;-78
2022/09/10 06:40:00;;;;;;;10.13;6.93;;;16.20;99.90;;;;;;5033815;28;20455;-79
2022/09/10 06:42:27;;;;;;;8.50;7.03;;;16.10;99.90;;;;;;5039202;28;20518;-79
2022/09/10 06:44:54;;;;;;;8.83;8.03;;;16.10;99.90;;;;;;5031897;28;20547;-79
2022/09/10 06:47:21;;;;;;;10.87;8.37;;;16.10;99.90;;;;;;5036863;28;20472;-79
2022/09/10 06:49:49;;;;;;;8.47;6.37;;;16.20;99.90;;;;;;5033446;28;20451;-81
2022/09/10 06:52:16;;;;;;;9.03;6.10;;;16.10;99.90;;;;;;5036280;28;20455;-80
2022/09/10 06:54:42;;;;;;;14.13;6.30;;;16.10;99.90;;;;;;5032865;28;20548;-80
2022/09/10 06:57:10;;;;;;;11.23;7.40;;;16.10;99.90;;;;;;5031785;28;20581;-79
2022/09/10 06:59:37;;;;;;;6.60;5.73;;;16.00;99.90;;;;;;5038262;28;20482;-79
2022/09/10 07:02:04;;;;;;;11.33;6.57;;;16.10;99.90;;;;;;5040085;28;20445;-79
2022/09/10 07:04:30;;;;;;;8.40;6.60;;;16.00;99.90;;;;;;5032873;28;20542;-80
2022/09/10 07:06:59;;;;;;;9.63;5.80;;;16.00;99.90;;;;;;5033412;28;20482;-79
2022/09/10 07:09:26;;;;;;;11.97;6.67;;;16.00;99.90;;;;;;5034418;28;20487;-79
2022/09/10 07:11:53;;;;;;;7.60;5.63;;;16.10;99.90;;;;;;5028614;28;20452;-80
2022/09/10 07:14:20;;;;;;;13.67;7.67;;;16.00;99.90;;;;;;5025754;28;20464;-78
2022/09/10 07:16:49;;;;;;;7.67;5.67;;;16.10;99.90;;;;;;5031321;28;20474;-79
2022/09/10 07:19:16;;;;;;;8.67;6.27;;;16.10;99.90;;;;;;5034587;28;20601;-78
2022/09/10 07:21:43;;;;;;;5.30;4.80;;;16.20;99.90;;;;;;5054335;28;20459;-78
2022/09/10 07:24:13;;;;;;;7.30;5.10;;;16.20;99.90;;;;;;5050255;28;20551;-78
2022/09/10 07:26:40;;;;;;;6.67;5.30;;;16.20;99.90;;;;;;5043216;28;20477;-78
2022/09/10 07:29:07;;;;;;;8.27;5.33;;;16.20;99.90;;;;;;5044181;28;20442;-78
2022/09/10 07:31:37;;;;;;;5.40;4.83;;;16.30;99.90;;;;;;5050054;28;20466;-81
2022/09/10 07:34:04;;;;;;;7.20;6.03;;;16.30;99.90;;;;;;5051240;28;20562;-79
2022/09/10 07:36:31;;;;;;;12.33;6.70;;;16.40;99.90;;;;;;5048932;28;20487;-78
2022/09/10 07:39:00;;;;;;;9.70;5.43;;;16.50;99.90;;;;;;5044878;28;20480;-79
2022/09/10 07:41:30;;;;;;;9.43;6.40;;;16.50;99.90;;;;;;5069938;22;20886;-80
2022/09/10 07:43:58;;;;;;;6.87;6.10;;;16.50;99.90;;;;;;5043202;28;20470;-79
2022/09/10 07:46:26;;;;;;;8.23;6.33;;;16.40;99.90;;;;;;5046987;28;20455;-79
2022/09/10 07:48:55;;;;;;;7.70;5.97;;;16.50;99.90;;;;;;5037390;28;20488;-79
2022/09/10 07:51:23;;;;;;;8.20;6.50;;;16.40;99.90;;;;;;5030371;28;20532;-81
2022/09/10 07:53:53;;;;;;;7.80;5.30;;;16.50;99.90;;;;;;5022547;28;20462;-79
2022/09/10 07:56:22;;;;;;;9.63;7.07;;;16.60;99.90;;;;;;5025315;28;21025;-78
2022/09/10 07:58:50;;;;;;;10.10;6.70;;;16.60;99.90;;;;;;5026707;28;20490;-79
2022/09/10 08:01:19;;;;;;;10.77;7.30;;;16.70;99.90;;;;;;5039612;28;20514;-79
2022/09/10 08:03:46;;;;;;;8.63;5.80;;;16.70;99.90;;;;;;5031250;28;20463;-80
2022/09/10 08:06:13;;;;;;;7.70;6.07;;;16.80;99.90;;;;;;5019639;28;20464;-81
2022/09/10 08:08:41;;;;;;;9.80;6.77;;;16.80;99.90;;;;;;5020438;28;20455;-80
2022/09/10 08:11:10;;;;;;;10.60;7.33;;;16.60;99.90;;;;;;5020449;28;20891;-80
2022/09/10 08:13:38;;;;;;;7.50;5.90;;;16.60;99.90;;;;;;5020494;28;20468;-78
2022/09/10 08:16:07;;;;;;;9.00;6.40;;;16.80;99.90;;;;;;5022661;28;20456;-80
2022/09/10 08:18:35;;;;;;;14.77;7.23;;;16.70;99.90;;;;;;5021118;28;20492;-81
2022/09/10 08:21:02;;;;;;;7.73;6.10;;;16.80;99.90;;;;;;5022083;28;20460;-79
2022/09/10 08:23:29;;;;;;;7.57;6.87;;;16.70;99.90;;;;;;5021155;28;20461;-81
2022/09/10 08:25:57;;;;;;;9.10;8.17;;;16.80;99.90;;;;;;5023103;28;20464;-80
2022/09/10 08:28:24;;;;;;;7.33;5.97;;;16.90;99.90;;;;;;5024302;28;20457;-80
2022/09/10 08:30:59;;;;;;;8.40;7.03;;;16.80;99.90;;;;;;5022638;28;20452;-80
2022/09/10 08:33:27;;;;;;;10.10;7.00;;;16.80;99.90;;;;;;5020231;28;20453;-80
2022/09/10 08:35:56;;;;;;;8.40;6.77;;;16.90;99.90;;;;;;5019672;28;21098;-80
2022/09/10 08:38:24;;;;;;;8.47;7.57;;;16.90;99.90;;;;;;5030352;28;20464;-79
2022/09/10 08:40:53;;;;;;;8.70;6.83;;;16.90;99.90;;;;;;5020920;28;20452;-79
2022/09/10 08:43:27;;;;;;;7.50;5.70;;;16.90;99.90;;;;;;5031402;28;21008;-79
2022/09/10 08:45:56;;;;;;;7.93;7.13;;;16.90;99.90;;;;;;5042169;28;20540;-80
2022/09/10 08:48:25;;;;;;;9.50;6.37;;;16.80;99.90;;;;;;5027800;28;20531;-81
2022/09/10 08:50:57;;;;;;;7.73;6.40;;;16.90;99.90;;;;;;5032260;28;20509;-79
2022/09/10 08:53:30;;;;;;;9.67;7.67;;;16.90;99.90;;;;;;5030193;28;20546;-80
2022/09/10 08:56:04;;;;;;;8.97;7.20;;;16.80;99.90;;;;;;5036264;28;20463;-80
2022/09/10 08:58:39;;;;;;;10.67;8.50;;;16.90;99.90;;;;;;5021652;28;20465;-79
2022/09/10 09:01:11;;;;;;;9.57;8.57;;;16.80;99.90;;;;;;5027808;28;20463;-79
2022/09/10 09:03:43;;;;;;;9.50;8.27;;;16.80;99.90;;;;;;5036194;28;20448;-80
2022/09/10 09:06:24;;;;;;;11.33;7.73;;;16.90;99.90;;;;;;5041755;28;20905;-78
2022/09/10 09:08:52;;;;;;;8.57;7.03;;;16.80;99.90;;;;;;5039908;28;20428;-77
2022/09/10 09:11:27;;;;;;;9.33;7.90;;;16.80;99.90;;;;;;5039983;28;20865;-78
2022/09/10 09:14:24;;;;;;;9.03;7.60;;;16.80;99.90;;;;;;5040167;28;20478;-79
2022/09/10 09:17:11;;;;;;;8.17;7.30;;;16.90;99.90;;;;;;5043421;28;20455;-79
2022/09/10 09:19:45;;;;;;;8.90;7.80;;;17.00;99.90;;;;;;5037921;28;20590;-79
2022/09/10 09:22:18;;;;;;;10.13;6.80;;;17.00;99.90;;;;;;5021336;28;20488;-79
2022/09/10 09:24:54;;;;;;;11.60;8.93;;;17.10;99.90;;;;;;5023770;28;20541;-79
2022/09/10 09:27:21;;;;;;;9.23;7.80;;;17.10;99.90;;;;;;5021824;28;20479;-79
2022/09/10 09:29:54;;;;;;;9.90;8.83;;;17.10;99.90;;;;;;5018401;28;20536;-79
2022/09/10 09:32:23;;;;;;;9.70;8.80;;;17.20;99.90;;;;;;5030369;28;20476;-80
2022/09/10 09:34:53;;;;;;;8.83;7.80;;;17.30;99.90;;;;;;5016939;28;20465;-80
2022/09/10 09:37:42;;;;;;;9.70;8.43;;;17.30;99.90;;;;;;5014380;28;20507;-78
2022/09/10 09:40:48;;;;;;;11.33;8.23;;;17.40;99.90;;;;;;5016256;28;20577;-79
2022/09/10 09:43:36;;;;;;;10.20;7.90;;;17.40;99.90;;;;;;5008422;28;20493;-79
2022/09/10 09:46:09;;;;;;;8.97;7.77;;;17.30;99.90;;;;;;5013376;28;21200;-79
2022/09/10 09:48:40;;;;;;;8.10;6.43;;;17.30;99.90;;;;;;5015710;28;20455;-80
2022/09/10 09:51:10;;;;;;;10.23;7.40;;;17.40;99.90;;;;;;5020123;28;20853;-81
2022/09/10 09:53:39;;;;;;;7.83;6.20;;;17.40;99.90;;;;;;5013630;28;20895;-79
2022/09/10 09:56:14;;;;;;;11.17;6.73;;;17.40;99.90;;;;;;5025340;28;20449;-80
2022/09/10 09:58:48;;;;;;;8.77;6.97;;;17.30;99.90;;;;;;5022960;28;20787;-78
2022/09/10 10:01:21;;;;;;;7.50;6.60;;;17.40;99.90;;;;;;5026837;28;20458;-80
2022/09/10 10:04:00;;;;;;;9.00;8.10;;;17.40;99.90;;;;;;5016559;28;20532;-78
2022/09/10 10:06:30;;;;;;;9.23;6.63;;;17.20;99.90;;;;;;5023406;28;20492;-81
2022/09/10 10:09:03;;;;;;;7.90;7.13;;;17.10;99.90;;;;;;5031434;28;20488;-83
2022/09/10 10:11:45;;;;;;;9.20;7.63;;;17.10;99.90;;;;;;5028553;28;20504;-81
2022/09/10 10:14:21;;;;;;;14.87;9.70;;;17.00;99.90;;;;;;5022721;28;20464;-81
2022/09/10 10:16:50;;;;;;;12.83;9.53;;;16.90;99.90;;;;;;5030502;28;20453;-82
2022/09/10 10:19:33;;;;;;;9.23;7.13;;;16.90;99.90;;;;;;5029017;28;20500;-81
2022/09/10 10:22:21;;;;;;;8.67;7.77;;;16.80;99.90;;;;;;5026831;28;20503;-82
2022/09/10 10:24:52;;;;;;;10.13;7.40;;;16.80;99.90;;;;;;5021401;28;20515;-82
2022/09/10 10:27:25;;;;;;;6.77;6.10;;;16.70;99.90;;;;;;5034641;28;20467;-80
2022/09/10 10:29:55;;;;;;;10.50;6.67;;;16.70;99.90;;;;;;5028922;28;20453;-80
2022/09/10 10:32:37;;;;;;;11.50;6.57;;;16.70;99.90;;;;;;5028239;28;20470;-81
2022/09/10 10:35:18;;;;;;;6.77;4.63;;;16.80;99.90;;;;;;5031701;28;20462;-80
2022/09/10 10:37:59;;;;;;;5.17;4.67;;;16.80;99.90;;;;;;5030800;28;20472;-80
2022/09/10 10:40:32;;;;;;;5.70;5.07;;;16.80;99.90;;;;;;5026981;28;20545;-79
2022/09/10 10:43:10;;;;;;;6.53;5.90;;;16.70;99.90;;;;;;5019550;28;20482;-80
2022/09/10 10:45:47;;;;;;;9.80;7.87;;;16.70;99.90;;;;;;5027998;28;20525;-80
2022/09/10 10:48:28;;;;;;;7.07;6.30;;;16.60;99.90;;;;;;5021743;28;20839;-79
2022/09/10 10:51:02;;;;;;;8.90;5.27;;;16.60;99.90;;;;;;5021387;28;20443;-81
2022/09/10 10:53:47;;;;;;;7.03;5.90;;;16.60;99.90;;;;;;5028331;28;20491;-79
2022/09/10 10:56:20;;;;;;;6.20;5.70;;;16.60;99.90;;;;;;5025762;28;20484;-80
2022/09/10 10:59:17;;;;;;;5.30;4.80;;;16.60;99.90;;;;;;5018968;28;20454;-80
2022/09/10 11:01:49;;;;;;;8.73;6.43;;;16.60;99.90;;;;;;5021115;28;20485;-80
2022/09/10 11:04:29;;;;;;;10.27;6.53;;;16.50;99.90;;;;;;5018775;28;20477;-79
2022/09/10 11:07:02;;;;;;;6.57;5.97;;;16.50;99.90;;;;;;5026296;28;20451;-79
2022/09/10 11:09:37;;;;;;;5.43;4.93;;;16.60;99.90;;;;;;5022175;28;20467;-80
2022/09/10 11:12:10;;;;;;;6.23;4.83;;;16.60;99.90;;;;;;5021172;28;20532;-78
2022/09/10 11:14:43;;;;;;;8.10;5.30;;;16.60;99.90;;;;;;5018734;28;20457;-77
2022/09/10 11:17:15;;;;;;;5.10;4.67;;;16.70;99.90;;;;;;5018601;28;20496;-79
2022/09/10 11:19:48;;;;;;;7.37;6.30;;;16.80;99.90;;;;;;5025993;28;20716;-79
2022/09/10 11:22:19;;;;;;;10.57;6.47;;;16.80;99.90;;;;;;5029378;28;20479;-81
2022/09/10 11:24:51;;;;;;;10.30;7.97;;;16.90;99.90;;;;;;5022331;28;20995;-80
2022/09/10 11:27:24;;;;;;;9.10;7.77;;;17.10;99.90;;;;;;5026419;28;20461;-79
2022/09/10 11:29:57;;;;;;;7.97;7.23;;;17.20;99.90;;;;;;5026185;28;20456;-80
2022/09/10 11:32:30;;;;;;;12.23;10.40;;;17.30;99.90;;;;;;5027077;28;20464;-79
2022/09/10 11:35:07;;;;;;;11.90;10.80;;;17.50;99.90;;;;;;5025656;28;20483;-79
2022/09/10 11:37:46;;;;;;;10.13;8.93;;;17.60;99.90;;;;;;5027467;28;20490;-80
2022/09/10 11:40:17;;;;;;;12.20;8.63;;;17.50;99.90;;;;;;5026560;28;20502;-80
2022/09/10 11:42:52;;;;;;;9.27;8.20;;;17.60;99.90;;;;;;5023916;28;20961;-79
2022/09/10 11:45:27;;;;;;;9.30;8.50;;;17.50;99.90;;;;;;5026321;28;20454;-79
2022/09/10 11:48:00;;;;;;;11.43;9.60;;;17.50;99.90;;;;;;5027209;28;20467;-80
2022/09/10 11:50:32;;;;;;;11.77;10.57;;;17.50;99.90;;;;;;5026802;28;20449;-80
2022/09/10 11:53:00;;;;;;;10.10;9.20;;;17.50;99.90;;;;;;5025466;28;20487;-79
2022/09/10 11:55:36;;;;;;;13.73;12.00;;;17.60;99.90;;;;;;5025837;28;20487;-79
2022/09/10 11:58:12;;;;;;;11.00;10.00;;;17.60;99.90;;;;;;5026444;28;20459;-79
2022/09/10 12:00:53;;;;;;;12.03;10.83;;;17.60;99.90;;;;;;5025302;28;20488;-80
2022/09/10 12:03:52;;;;;;;15.43;11.50;;;17.60;99.90;;;;;;5024620;28;20545;-79
2022/09/10 12:06:25;;;;;;;11.80;10.60;;;17.70;99.90;;;;;;5021399;28;20464;-79
2022/09/10 12:09:04;;;;;;;18.93;16.03;;;17.70;99.90;;;;;;5025204;28;20588;-79
2022/09/10 12:11:38;;;;;;;18.10;15.20;;;18.00;99.90;;;;;;5025590;28;20461;-78
2022/09/10 12:14:12;;;;;;;14.20;12.67;;;18.10;99.90;;;;;;5016196;28;20446;-80
2022/09/10 12:16:45;;;;;;;14.67;13.17;;;18.10;99.90;;;;;;5026031;28;20458;-81
2022/09/10 12:19:23;;;;;;;16.00;13.33;;;18.20;99.90;;;;;;5025804;28;20523;-79
2022/09/10 12:21:54;;;;;;;14.83;13.50;;;18.10;99.90;;;;;;5022817;28;20533;-78
2022/09/10 12:24:28;;;;;;;11.10;10.00;;;18.10;99.90;;;;;;5017857;28;20478;-81
2022/09/10 12:26:55;;;;;;;12.60;11.47;;;18.00;99.90;;;;;;5014039;28;20465;-79
2022/09/10 12:29:32;;;;;;;14.97;12.10;;;18.10;99.90;;;;;;5023538;28;20507;-79
2022/09/10 12:32:29;;;;;;;12.20;11.00;;;18.00;99.90;;;;;;5020663;28;20898;-80
2022/09/10 12:35:45;;;;;;;14.73;13.23;;;17.90;99.90;;;;;;5018862;28;20463;-79
2022/09/10 12:38:45;;;;;;;13.87;12.60;;;17.80;99.90;;;;;;5020397;28;20453;-78
2022/09/10 12:41:34;;;;;;;12.87;11.67;;;17.70;99.90;;;;;;5016555;28;20499;-77
2022/09/10 12:44:02;;;;;;;15.07;13.57;;;17.70;99.90;;;;;;5021952;28;20893;-78
2022/09/10 12:46:31;;;;;;;16.03;13.27;;;17.70;99.90;;;;;;5022641;28;20449;-79
2022/09/10 12:49:11;;;;;;;18.33;16.37;;;17.60;99.90;;;;;;5022312;28;20536;-79
2022/09/10 12:51:52;;;;;;;21.60;16.80;;;17.50;99.90;;;;;;5026354;28;20497;-80
2022/09/10 12:54:39;;;;;;;15.90;14.27;;;17.50;99.90;;;;;;5026362;28;20471;-80
2022/09/10 12:57:20;;;;;;;16.33;14.63;;;17.50;99.90;;;;;;5028642;28;20442;-80
2022/09/10 13:00:16;;;;;;;19.77;15.10;;;17.50;99.90;;;;;;5034370;28;20458;-80
2022/09/10 13:02:49;;;;;;;15.33;13.80;;;17.40;99.90;;;;;;5022917;28;20466;-81
2022/09/10 13:05:28;;;;;;;18.83;16.93;;;17.40;99.90;;;;;;5028910;28;20821;-81